Time;durP1;ratioP1;P1;durP2;ratioP2;P2;SDS_P1;SDS_P2;PMS_P1;PMS_P2;Temp;Humidity;BMP_temperature;BMP_pressure;BME280_temperature;BME280_humidity;BME280_pressure;Samples;Min_cycle;Max_cycle;Signal;HPM_P1;HPM_P2
2022/02/14 00:00:02;;;;;;;4.33;3.93;;;2.20;63.70;;;0.70;68.57;97510.63;5035229;28;20534;-79
2022/02/14 00:02:29;;;;;;;6.10;4.03;;;2.20;63.20;;;0.62;68.31;97501.81;5038518;28;20443;-79
2022/02/14 00:04:56;;;;;;;4.60;3.67;;;2.20;63.20;;;0.60;68.55;97503.81;5033366;28;20446;-79
2022/02/14 00:07:23;;;;;;;5.83;4.37;;;2.10;63.40;;;0.51;68.91;97503.78;5035390;28;20462;-79
2022/02/14 00:09:52;;;;;;;5.10;3.90;;;2.10;63.40;;;0.56;68.76;97496.19;5048598;28;20438;-79
2022/02/14 00:12:19;;;;;;;8.13;4.50;;;2.00;63.40;;;0.56;68.85;97495.34;5049456;28;20530;-78
2022/02/14 00:14:46;;;;;;;5.30;4.17;;;2.00;63.50;;;0.55;68.73;97491.84;5046414;28;20430;-78
2022/02/14 00:17:12;;;;;;;5.17;4.27;;;2.10;63.60;;;0.49;69.25;97487.19;5035532;28;20478;-79
2022/02/14 00:19:39;;;;;;;6.57;4.20;;;2.00;63.60;;;0.46;69.03;97495.50;5036939;28;20486;-79
2022/02/14 00:22:07;;;;;;;4.90;4.03;;;2.00;63.70;;;0.40;69.50;97493.50;5035103;28;20446;-78
2022/02/14 00:24:34;;;;;;;5.67;4.37;;;1.90;63.90;;;0.31;69.68;97484.69;5035543;28;20470;-80
2022/02/14 00:27:02;;;;;;;4.50;4.10;;;1.80;63.90;;;0.25;70.27;97477.34;5032227;28;20532;-77
2022/02/14 00:29:29;;;;;;;8.20;4.90;;;1.80;64.40;;;0.24;70.13;97475.69;5029907;28;20466;-79
2022/02/14 00:31:56;;;;;;;5.23;3.70;;;1.70;64.20;;;-0.13;69.88;97411.34;5034106;28;20773;-80
2022/02/14 00:34:23;;;;;;;4.93;4.10;;;1.70;64.50;;;0.22;70.47;97477.69;5034459;28;20446;-80
2022/02/14 00:36:50;;;;;;;7.50;4.53;;;1.70;64.50;;;0.12;71.04;97477.81;5032801;28;20442;-77
2022/02/14 00:39:17;;;;;;;5.60;4.53;;;1.60;64.70;;;0.20;70.29;97479.66;5028432;28;20494;-78
2022/02/14 00:41:44;;;;;;;5.33;4.30;;;1.70;64.70;;;0.21;70.45;97481.34;5032369;28;20443;-78
2022/02/14 00:44:13;;;;;;;7.73;4.97;;;1.60;64.80;;;0.11;70.93;97474.31;5033014;28;20521;-79
2022/02/14 00:46:40;;;;;;;4.97;4.40;;;1.60;64.70;;;0.08;70.75;97473.84;5024531;28;20471;-79
2022/02/14 00:49:07;;;;;;;5.87;4.53;;;1.50;64.80;;;0.08;71.02;97473.84;5014711;28;20442;-77
2022/02/14 00:51:34;;;;;;;9.00;5.30;;;1.50;64.80;;;0.04;71.13;97467.16;5009668;28;20807;-77
2022/02/14 00:54:01;;;;;;;4.67;4.20;;;1.40;65.10;;;0.12;70.64;97462.69;5023559;28;20490;-76
2022/02/14 00:56:28;;;;;;;6.10;5.00;;;1.60;65.10;;;0.09;71.15;97472.84;5032465;28;20462;-79
2022/02/14 00:58:55;;;;;;;5.40;4.50;;;1.50;65.20;;;0.06;71.06;97470.47;5034390;28;20443;-80
2022/02/14 01:01:23;;;;;;;6.37;4.60;;;1.50;65.00;;;-0.24;71.72;97464.75;5033751;28;20442;-80
2022/02/14 01:03:50;;;;;;;6.77;4.63;;;1.30;65.30;;;-0.11;71.73;97464.31;5032698;28;20446;-81
2022/02/14 01:06:19;;;;;;;4.67;4.27;;;1.30;65.80;;;-0.06;71.17;97460.19;5033805;28;20549;-79
2022/02/14 01:08:46;;;;;;;5.97;5.37;;;1.40;65.90;;;0.05;70.85;97455.53;5033509;28;20961;-79
2022/02/14 01:11:13;;;;;;;4.93;4.40;;;1.50;65.70;;;0.01;71.10;97456.88;5027571;28;20506;-79
2022/02/14 01:13:41;;;;;;;7.90;3.97;;;1.40;65.60;;;-0.03;71.09;97440.41;5014022;28;20443;-80
2022/02/14 01:16:08;;;;;;;10.30;4.73;;;1.50;65.60;;;0.04;71.39;97456.53;5013856;28;20899;-81
2022/02/14 01:18:36;;;;;;;5.33;4.10;;;1.50;65.50;;;0.13;70.73;97463.53;5012933;28;20493;-81
2022/02/14 01:21:03;;;;;;;4.60;4.17;;;1.60;65.40;;;0.11;71.41;97463.69;5012209;28;20534;-81
2022/02/14 01:23:30;;;;;;;7.33;4.07;;;1.60;65.40;;;-0.12;71.76;97450.19;5014016;28;20471;-79
2022/02/14 01:25:57;;;;;;;5.00;4.10;;;1.40;65.60;;;0.13;71.07;97443.09;5030239;28;20435;-79
2022/02/14 01:28:24;;;;;;;6.50;4.73;;;1.50;65.70;;;-0.39;71.60;97382.25;5013816;28;20542;-78
2022/02/14 01:30:51;;;;;;;7.87;5.47;;;1.50;65.50;;;0.06;71.40;97441.25;5012903;28;20475;-78
2022/02/14 01:33:18;;;;;;;6.30;5.10;;;1.50;65.60;;;0.03;71.45;97436.28;5012815;28;20451;-77
2022/02/14 01:35:47;;;;;;;9.10;5.00;;;1.50;65.80;;;0.02;71.71;97437.28;5012843;28;20436;-76
2022/02/14 01:38:14;;;;;;;4.60;4.10;;;1.40;66.00;;;-0.06;71.71;97435.44;5016616;28;20941;-77
2022/02/14 01:40:41;;;;;;;7.43;5.10;;;1.40;65.90;;;0.04;71.51;97432.63;5017489;28;20530;-78
2022/02/14 01:43:09;;;;;;;6.00;4.40;;;1.40;66.00;;;0.01;71.31;97432.97;5017648;28;20455;-77
2022/02/14 01:45:36;;;;;;;5.80;4.57;;;1.50;65.90;;;-0.03;71.81;97425.31;5017585;28;20447;-76
2022/02/14 01:48:03;;;;;;;9.00;4.13;;;1.50;66.10;;;0.08;71.68;97423.34;5032713;28;20471;-78
2022/02/14 01:50:30;;;;;;;8.73;5.40;;;1.50;66.10;;;-0.01;71.47;97420.69;5017518;28;20998;-78
2022/02/14 01:52:58;;;;;;;7.70;4.90;;;1.50;66.10;;;0.00;72.37;97413.56;5017006;28;20910;-79
2022/02/14 01:55:25;;;;;;;6.63;4.80;;;1.40;66.20;;;-0.06;72.18;97415.03;5016113;28;20478;-78
2022/02/14 01:57:52;;;;;;;7.73;5.17;;;1.40;66.30;;;-0.07;72.38;97407.22;5017737;28;20782;-78
2022/02/14 02:00:21;;;;;;;6.57;4.90;;;1.40;66.20;;;0.04;72.80;97398.09;5017483;28;20498;-78
2022/02/14 02:02:48;;;;;;;6.17;4.20;;;1.50;66.40;;;0.11;71.58;97394.63;5032493;28;20490;-77
2022/02/14 02:05:16;;;;;;;5.57;4.30;;;1.60;66.20;;;0.07;71.68;97392.44;5016899;28;20443;-77
2022/02/14 02:07:45;;;;;;;6.60;4.80;;;1.60;66.10;;;0.10;72.05;97398.28;5026034;28;20501;-79
2022/02/14 02:10:13;;;;;;;9.30;4.90;;;1.60;66.40;;;0.07;71.78;97392.44;5045995;28;20454;-77
2022/02/14 02:12:49;;;;;;;5.70;5.10;;;1.60;66.00;;;-0.30;71.82;97344.94;5018572;28;20459;-80
2022/02/14 02:15:16;;;;;;;5.40;4.50;;;1.60;66.00;;;-0.01;72.10;97394.09;5017326;28;20517;-79
2022/02/14 02:17:43;;;;;;;6.23;4.43;;;1.60;66.20;;;-0.03;72.39;97392.59;5032057;28;20444;-80
2022/02/14 02:20:14;;;;;;;5.67;4.40;;;1.50;66.40;;;-0.06;72.29;97371.69;5017214;28;20447;-79
2022/02/14 02:22:42;;;;;;;8.50;5.27;;;1.50;66.60;;;-0.07;72.75;97381.50;5015579;28;20458;-79
2022/02/14 02:25:11;;;;;;;7.77;4.60;;;1.50;66.60;;;-0.04;73.39;97375.00;5017157;28;20555;-78
2022/02/14 02:27:39;;;;;;;6.00;4.93;;;1.50;66.90;;;0.02;72.47;97370.88;5017558;28;21000;-77
2022/02/14 02:30:09;;;;;;;5.87;4.47;;;1.50;66.70;;;0.12;72.05;97366.25;5015602;28;20805;-76
2022/02/14 02:32:37;;;;;;;5.03;4.30;;;1.60;66.60;;;0.17;72.05;97355.94;5017239;28;20509;-77
2022/02/14 02:35:06;;;;;;;8.77;4.57;;;1.70;66.50;;;0.25;72.03;97361.28;5031267;28;20996;-76
2022/02/14 02:37:34;;;;;;;6.60;5.63;;;1.70;66.40;;;0.32;71.51;97360.59;5016429;28;20501;-77
2022/02/14 02:40:01;;;;;;;9.43;4.90;;;1.80;66.10;;;0.42;70.80;97358.59;5015299;28;20454;-77
2022/02/14 02:42:30;;;;;;;6.73;4.90;;;1.90;65.70;;;0.41;70.41;97341.81;5016046;28;20470;-77
2022/02/14 02:44:57;;;;;;;7.30;4.87;;;2.00;65.60;;;0.53;70.11;97339.66;5031357;28;20740;-76
2022/02/14 02:47:26;;;;;;;6.17;4.43;;;2.00;65.30;;;0.41;69.93;97325.88;5015009;28;20503;-78
2022/02/14 02:49:54;;;;;;;5.27;4.00;;;2.00;64.90;;;0.58;69.30;97336.47;5014310;28;20538;-78
2022/02/14 02:52:23;;;;;;;7.73;5.37;;;2.10;64.70;;;0.61;69.17;97336.16;5031428;28;20475;-79
2022/02/14 02:54:50;;;;;;;4.70;4.20;;;2.10;64.80;;;0.69;68.65;97345.97;5016367;28;20475;-78
2022/02/14 02:57:18;;;;;;;5.93;4.80;;;2.20;64.40;;;0.70;68.60;97334.31;5014590;28;20458;-76
2022/02/14 02:59:47;;;;;;;5.03;4.53;;;2.20;64.00;;;0.76;68.45;97328.31;5015838;28;20435;-78
2022/02/14 03:02:14;;;;;;;6.03;4.13;;;2.20;64.00;;;0.84;68.31;97325.66;5015740;28;20934;-79
2022/02/14 03:04:42;;;;;;;6.60;4.93;;;2.40;64.00;;;0.88;68.53;97326.09;5015706;28;20443;-76
2022/02/14 03:07:09;;;;;;;6.03;4.70;;;2.40;63.80;;;0.92;67.98;97332.78;5015376;28;20459;-79
2022/02/14 03:09:36;;;;;;;6.50;4.60;;;2.40;63.50;;;0.94;67.84;97321.94;5032727;28;20535;-77
2022/02/14 03:12:04;;;;;;;6.50;4.20;;;2.50;63.40;;;1.01;67.94;97314.94;5015975;28;20463;-77
2022/02/14 03:14:31;;;;;;;8.50;4.33;;;2.50;63.40;;;0.96;67.13;97307.47;5014654;28;20526;-77
2022/02/14 03:17:00;;;;;;;7.10;4.90;;;2.50;62.80;;;1.13;67.43;97312.72;5015215;28;20451;-76
2022/02/14 03:19:27;;;;;;;5.80;4.37;;;2.60;62.80;;;1.20;66.36;97320.84;5031322;28;20538;-75
2022/02/14 03:21:55;;;;;;;5.10;4.03;;;2.70;62.10;;;1.29;66.33;97301.19;5015562;28;20522;-76
2022/02/14 03:24:22;;;;;;;4.30;3.60;;;2.80;62.40;;;1.20;66.19;97302.22;5031091;28;20949;-77
2022/02/14 03:26:49;;;;;;;7.40;4.90;;;2.80;62.20;;;1.39;66.00;97312.44;5030815;28;20531;-76
2022/02/14 03:29:17;;;;;;;5.53;4.37;;;2.80;62.10;;;1.31;65.82;97301.84;5015601;28;20546;-76
2022/02/14 03:31:44;;;;;;;5.73;4.20;;;2.80;61.60;;;1.46;66.17;97303.78;5014142;28;20443;-77
2022/02/14 03:34:12;;;;;;;7.57;4.33;;;2.90;62.00;;;1.44;65.94;97305.75;5015377;28;20515;-76
2022/02/14 03:36:39;;;;;;;6.33;4.87;;;2.90;61.60;;;1.51;65.48;97288.09;5015668;28;20557;-76
2022/02/14 03:39:07;;;;;;;4.80;4.20;;;3.00;61.60;;;1.44;64.84;97287.13;5015672;28;20436;-76
2022/02/14 03:41:34;;;;;;;5.93;4.23;;;3.00;60.80;;;1.53;65.11;97283.41;5013713;28;20435;-76
2022/02/14 03:44:01;;;;;;;4.87;3.90;;;3.00;61.20;;;1.70;64.15;97282.31;5013872;28;20534;-76
2022/02/14 03:46:28;;;;;;;6.00;4.10;;;3.10;60.70;;;1.64;64.25;97276.84;5030765;28;20543;-78
2022/02/14 03:48:56;;;;;;;4.83;4.33;;;3.10;60.50;;;1.73;64.09;97278.47;5015999;28;20546;-77
2022/02/14 03:51:24;;;;;;;4.33;3.90;;;3.20;60.30;;;1.57;64.18;97265.25;5015751;28;20436;-76
2022/02/14 03:53:52;;;;;;;6.03;4.27;;;3.10;60.10;;;1.69;63.90;97271.84;5015742;28;20463;-75
2022/02/14 03:56:18;;;;;;;5.20;4.67;;;3.20;60.10;;;1.57;64.96;97273.25;5024615;28;20479;-76
2022/02/14 03:58:45;;;;;;;9.30;4.90;;;3.10;60.60;;;1.59;64.21;97274.72;5024231;28;20439;-76
2022/02/14 04:01:12;;;;;;;8.80;5.03;;;3.10;60.00;;;1.64;64.24;97264.38;5018782;28;20471;-77
2022/02/14 04:03:39;;;;;;;5.43;3.90;;;3.10;60.20;;;1.54;63.91;97255.78;5013937;28;21045;-77
2022/02/14 04:06:06;;;;;;;4.03;3.63;;;3.10;59.90;;;1.64;64.74;97263.53;5015179;28;20455;-76
2022/02/14 04:08:35;;;;;;;7.13;4.50;;;3.10;60.40;;;1.45;63.55;97212.41;5015102;28;20534;-76
2022/02/14 04:11:02;;;;;;;5.33;4.83;;;3.20;59.70;;;1.54;63.88;97248.63;5014544;28;20448;-76
2022/02/14 04:13:29;;;;;;;8.63;4.27;;;3.20;60.00;;;1.74;63.83;97258.81;5014027;28;20443;-77
2022/02/14 04:15:56;;;;;;;5.77;4.80;;;3.20;60.10;;;1.72;64.57;97246.66;5030144;28;20847;-78
2022/02/14 04:18:23;;;;;;;6.87;5.00;;;3.20;59.90;;;1.66;63.45;97254.38;5015189;28;20907;-77
2022/02/14 04:20:51;;;;;;;4.60;4.20;;;3.20;59.30;;;1.77;63.42;97257.66;5015072;28;20443;-77
2022/02/14 04:23:18;;;;;;;5.87;4.50;;;3.20;59.40;;;1.70;63.23;97252.19;5014329;28;20443;-76
2022/02/14 04:25:46;;;;;;;4.60;4.10;;;3.20;59.20;;;1.73;63.81;97249.16;5013237;28;21020;-77
2022/02/14 04:28:13;;;;;;;3.67;3.37;;;3.20;59.60;;;1.61;62.15;97203.50;5027751;28;20463;-78
2022/02/14 04:30:42;;;;;;;5.13;3.93;;;3.30;58.70;;;1.92;62.48;97244.34;5013547;28;20435;-77
2022/02/14 04:33:09;;;;;;;4.20;3.80;;;3.40;58.80;;;1.66;63.01;97209.09;5029466;28;20820;-76
2022/02/14 04:35:36;;;;;;;7.10;4.03;;;3.40;58.70;;;1.91;62.17;97238.22;5013499;28;20444;-77
2022/02/14 04:38:03;;;;;;;8.83;5.27;;;3.40;58.30;;;1.94;63.35;97240.53;5014740;28;20443;-76
2022/02/14 04:40:33;;;;;;;5.30;3.80;;;3.40;58.90;;;1.87;62.42;97239.56;5014321;28;20443;-76
2022/02/14 04:43:03;;;;;;;6.77;4.00;;;3.40;58.00;;;1.84;61.75;97226.59;5015409;28;20435;-75
2022/02/14 04:45:30;;;;;;;5.03;4.23;;;3.40;58.20;;;1.96;61.63;97232.31;5014113;28;20475;-77
2022/02/14 04:47:58;;;;;;;4.07;3.67;;;3.40;58.10;;;1.87;61.65;97242.22;5013687;28;20557;-75
2022/02/14 04:50:26;;;;;;;4.20;3.80;;;3.40;57.80;;;1.85;61.68;97233.59;5028679;28;20439;-75
2022/02/14 04:52:53;;;;;;;4.40;4.00;;;3.30;57.70;;;1.90;62.66;97238.38;5029423;28;20946;-74
2022/02/14 04:55:21;;;;;;;4.50;3.70;;;3.40;58.10;;;1.87;61.43;97228.91;5029446;28;20439;-75
2022/02/14 04:57:48;;;;;;;6.50;4.30;;;3.40;57.60;;;1.84;62.29;97239.94;5014742;28;20498;-76
2022/02/14 05:00:18;;;;;;;5.80;4.50;;;3.30;57.90;;;1.84;61.48;97230.13;5013355;28;20534;-76
2022/02/14 05:02:46;;;;;;;5.17;4.47;;;3.30;57.60;;;1.88;61.44;97230.56;5013898;28;20447;-77
2022/02/14 05:05:13;;;;;;;5.20;3.90;;;3.40;57.60;;;1.86;63.28;97229.09;5018502;28;20466;-76
2022/02/14 05:07:40;;;;;;;5.90;4.20;;;3.30;58.30;;;1.79;61.49;97226.31;5015217;28;20499;-76
2022/02/14 05:10:09;;;;;;;4.83;3.40;;;3.30;57.50;;;1.68;61.69;97207.09;5013469;28;20471;-76
2022/02/14 05:12:37;;;;;;;3.97;3.57;;;3.30;57.50;;;1.83;62.51;97224.94;5031891;28;20479;-77
2022/02/14 05:15:05;;;;;;;5.13;4.43;;;3.30;58.10;;;1.84;61.48;97230.13;5019917;28;20443;-76
2022/02/14 05:17:34;;;;;;;8.90;4.23;;;3.30;57.40;;;1.41;62.29;97177.31;5020938;28;20435;-75
2022/02/14 05:20:01;;;;;;;4.57;4.00;;;3.30;57.60;;;1.72;61.56;97226.22;5019447;28;20467;-76
2022/02/14 05:22:28;;;;;;;5.20;3.97;;;3.20;57.20;;;1.67;61.60;97228.59;5034397;28;20980;-77
2022/02/14 05:24:55;;;;;;;4.70;4.17;;;3.20;57.30;;;1.70;61.77;97229.03;5035966;28;20638;-77
2022/02/14 05:27:23;;;;;;;5.63;3.83;;;3.20;57.40;;;1.32;61.84;97165.09;5020578;28;20466;-77
2022/02/14 05:29:50;;;;;;;6.17;4.43;;;3.20;57.40;;;1.87;61.37;97228.09;5023318;28;20443;-76
2022/02/14 05:32:17;;;;;;;5.13;4.03;;;3.30;57.30;;;1.70;62.04;97233.56;5018732;28;20791;-76
2022/02/14 05:34:45;;;;;;;7.33;4.40;;;3.20;57.30;;;1.66;61.62;97222.41;5020973;28;20505;-76
2022/02/14 05:37:13;;;;;;;4.93;4.20;;;3.20;57.10;;;1.77;62.44;97228.34;5019607;28;20914;-76
2022/02/14 05:39:44;;;;;;;5.50;3.60;;;3.20;57.50;;;1.71;61.86;97227.22;5020956;28;20443;-77
2022/02/14 05:42:12;;;;;;;6.93;4.53;;;3.20;57.40;;;1.65;61.73;97230.56;5023484;28;20436;-77
2022/02/14 05:44:39;;;;;;;6.80;4.77;;;3.10;57.10;;;1.63;61.44;97235.25;5022995;28;20439;-77
2022/02/14 05:47:07;;;;;;;4.20;3.80;;;3.10;56.90;;;1.17;61.88;97159.69;5018924;28;20453;-77
2022/02/14 05:49:34;;;;;;;6.53;5.10;;;3.10;57.30;;;1.55;61.75;97229.00;5020233;28;20463;-77
2022/02/14 05:52:03;;;;;;;7.10;4.50;;;3.00;57.00;;;1.60;62.00;97228.47;5018615;28;20505;-78
2022/02/14 05:54:30;;;;;;;7.80;4.60;;;3.10;57.20;;;1.65;62.37;97235.91;5034551;28;20531;-77
2022/02/14 05:56:57;;;;;;;6.73;3.87;;;3.10;57.40;;;1.65;61.93;97223.44;5018071;28;20457;-77
2022/02/14 05:59:25;;;;;;;6.23;4.10;;;3.10;57.20;;;1.69;61.79;97227.38;5018748;28;20481;-78
2022/02/14 06:01:52;;;;;;;5.17;4.70;;;3.20;57.20;;;1.62;61.37;97225.63;5014618;28;20851;-76
2022/02/14 06:04:18;;;;;;;7.27;4.67;;;3.20;56.80;;;1.63;61.82;97228.09;5014201;28;20435;-76
2022/02/14 06:06:46;;;;;;;6.00;4.57;;;3.10;56.80;;;1.65;61.55;97247.41;5015933;28;20550;-76
2022/02/14 06:09:14;;;;;;;6.43;4.10;;;3.10;56.60;;;1.70;61.41;97236.22;5031887;28;20487;-76
2022/02/14 06:11:41;;;;;;;4.53;4.13;;;3.10;56.70;;;1.69;61.21;97238.03;5015581;28;20448;-76
2022/02/14 06:14:08;;;;;;;6.13;4.53;;;3.20;56.70;;;1.66;61.13;97242.88;5017003;28;20475;-77
2022/02/14 06:16:35;;;;;;;5.90;4.10;;;3.20;56.50;;;1.82;61.10;97241.94;5032581;28;20946;-72
2022/02/14 06:19:03;;;;;;;7.40;4.80;;;3.20;56.50;;;1.81;60.97;97251.75;5017229;28;20958;-81
2022/02/14 06:21:30;;;;;;;9.73;4.77;;;3.30;56.40;;;1.88;60.26;97245.72;5017618;28;20451;-81
2022/02/14 06:23:57;;;;;;;6.53;4.27;;;3.30;56.10;;;1.85;60.34;97241.59;5031138;28;20526;-80
2022/02/14 06:26:25;;;;;;;5.80;4.00;;;3.30;56.10;;;1.87;60.07;97244.06;5032506;28;20435;-75
2022/02/14 06:28:52;;;;;;;5.50;4.23;;;3.30;55.80;;;1.87;60.13;97244.88;5015334;28;20893;-75
2022/02/14 06:31:20;;;;;;;7.30;4.60;;;3.30;55.80;;;1.87;59.83;97239.56;5016479;28;20630;-76
2022/02/14 06:33:47;;;;;;;5.50;4.20;;;3.30;55.60;;;1.78;60.00;97240.66;5015227;28;20546;-79
2022/02/14 06:36:14;;;;;;;8.43;4.43;;;3.30;55.60;;;1.78;59.99;97238.00;5017258;28;20451;-79
2022/02/14 06:38:42;;;;;;;5.40;4.90;;;3.20;55.50;;;1.71;60.20;97243.19;5016464;28;20515;-78
2022/02/14 06:41:09;;;;;;;5.37;4.27;;;3.20;55.60;;;1.68;60.67;97236.38;5016232;28;20509;-76
2022/02/14 06:43:37;;;;;;;7.80;4.50;;;3.10;55.70;;;1.68;60.09;97239.03;5016714;28;20541;-80
2022/02/14 06:46:05;;;;;;;5.10;4.07;;;3.10;55.40;;;1.62;59.96;97239.75;5032086;28;20443;-78
2022/02/14 06:48:32;;;;;;;8.03;4.67;;;3.10;55.20;;;1.51;60.25;97238.31;5015067;28;20487;-77
2022/02/14 06:50:59;;;;;;;5.43;4.17;;;3.00;55.30;;;1.58;59.94;97229.66;5016277;28;20467;-77
2022/02/14 06:53:27;;;;;;;5.03;3.53;;;3.10;55.40;;;1.58;60.02;97238.44;5016136;28;20538;-78
2022/02/14 06:55:55;;;;;;;6.00;4.30;;;3.00;55.20;;;1.66;60.22;97249.06;5014908;28;20471;-79
2022/02/14 06:58:22;;;;;;;6.90;4.50;;;3.10;55.90;;;1.66;60.42;97253.53;5031561;28;20443;-78
2022/02/14 07:00:50;;;;;;;6.83;4.60;;;3.10;55.40;;;1.57;59.97;97250.09;5019607;28;20471;-76
2022/02/14 07:03:17;;;;;;;5.20;4.10;;;3.00;55.10;;;1.47;60.28;97245.00;5015826;28;20523;-77
2022/02/14 07:05:45;;;;;;;6.23;5.20;;;3.00;55.10;;;1.56;59.74;97253.78;5015531;28;20471;-77
2022/02/14 07:08:12;;;;;;;12.17;4.50;;;3.00;55.00;;;1.55;59.72;97262.75;5015670;28;20467;-77
2022/02/14 07:10:38;;;;;;;7.30;4.03;;;3.00;54.90;;;1.48;60.01;97264.50;5010862;28;20463;-77
2022/02/14 07:13:05;;;;;;;4.93;4.20;;;3.00;55.10;;;1.57;59.57;97263.41;5015399;28;20505;-77
2022/02/14 07:15:33;;;;;;;6.33;4.70;;;3.00;54.90;;;1.48;59.82;97259.16;5034408;28;20530;-76
2022/02/14 07:18:04;;;;;;;7.30;4.27;;;3.00;54.80;;;1.47;59.72;97252.19;5028253;28;20536;-77
2022/02/14 07:20:31;;;;;;;4.57;3.60;;;3.00;54.80;;;1.45;59.64;97241.69;5023389;28;20489;-78
2022/02/14 07:22:58;;;;;;;5.47;3.87;;;3.00;54.70;;;1.55;59.34;97252.13;5035638;28;21360;-74
2022/02/14 07:25:25;;;;;;;4.43;4.03;;;3.00;54.50;;;1.59;59.14;97253.41;5035469;28;20470;-72
2022/02/14 07:27:52;;;;;;;10.40;4.80;;;3.00;54.50;;;1.64;58.84;97248.41;5030439;28;20774;-76
2022/02/14 07:30:19;;;;;;;4.67;3.90;;;3.10;54.60;;;1.63;59.15;97244.09;5034144;28;20565;-74
2022/02/14 07:32:46;;;;;;;7.33;4.43;;;3.10;54.20;;;1.60;58.63;97244.44;5034922;28;20527;-75
2022/02/14 07:35:15;;;;;;;6.67;3.93;;;3.10;53.90;;;1.80;58.22;97246.63;5033708;28;20443;-76
2022/02/14 07:37:44;;;;;;;4.60;3.90;;;3.20;53.80;;;1.62;57.58;97199.81;5034852;28;20442;-75
2022/02/14 07:40:12;;;;;;;7.03;4.00;;;3.30;53.50;;;2.03;56.81;97243.94;5035363;28;20886;-75
2022/02/14 07:42:39;;;;;;;6.50;3.90;;;3.50;53.20;;;2.23;56.74;97254.09;5043737;28;20470;-78
2022/02/14 07:45:08;;;;;;;6.17;4.43;;;3.60;53.00;;;2.50;55.65;97255.34;5054602;28;20454;-74
2022/02/14 07:47:35;;;;;;;5.90;3.37;;;3.80;52.60;;;2.68;55.17;97240.81;5048650;28;20475;-75
2022/02/14 07:50:06;;;;;;;6.83;4.13;;;4.10;52.10;;;2.69;54.66;97248.63;5034347;28;20494;-75
2022/02/14 07:52:35;;;;;;;5.10;4.03;;;4.20;51.80;;;2.72;54.86;97246.59;5035854;28;20521;-75
2022/02/14 07:55:03;;;;;;;8.80;4.80;;;4.20;51.50;;;2.80;54.25;97247.31;5034596;28;20955;-76
2022/02/14 07:57:30;;;;;;;7.63;3.67;;;4.30;51.20;;;2.68;53.74;97241.63;5034739;28;20533;-77
2022/02/14 07:59:57;;;;;;;5.10;3.47;;;4.20;50.70;;;2.79;53.80;97232.31;5034262;28;20938;-77
2022/02/14 08:02:24;;;;;;;6.77;3.87;;;4.20;51.20;;;2.83;53.97;97238.13;5033734;28;20446;-76
2022/02/14 08:04:51;;;;;;;7.03;4.17;;;4.30;50.70;;;2.67;53.94;97234.63;5032699;28;20856;-75
2022/02/14 08:07:18;;;;;;;8.03;5.23;;;4.20;50.60;;;2.82;53.74;97221.31;5033107;28;20925;-75
2022/02/14 08:09:47;;;;;;;7.20;4.77;;;4.30;50.80;;;2.92;53.66;97230.84;5034057;28;20521;-75
2022/02/14 08:12:13;;;;;;;7.30;4.30;;;4.40;50.80;;;2.86;53.25;97231.59;5033110;28;20470;-75
2022/02/14 08:14:42;;;;;;;6.30;4.20;;;4.40;50.40;;;2.79;53.20;97221.66;5034446;28;20513;-76
2022/02/14 08:17:09;;;;;;;5.40;4.03;;;4.40;50.50;;;2.90;52.37;97246.22;5049319;28;20434;-76
2022/02/14 08:19:36;;;;;;;6.80;4.07;;;4.30;49.90;;;2.90;52.67;97232.88;5033969;28;20533;-77
2022/02/14 08:22:04;;;;;;;5.07;3.60;;;4.40;50.00;;;3.15;52.35;97235.25;5033532;28;20473;-76
2022/02/14 08:24:31;;;;;;;4.17;3.77;;;4.50;50.10;;;3.00;52.58;97230.75;5032302;28;20964;-77
2022/02/14 08:27:00;;;;;;;7.10;3.67;;;4.50;49.60;;;3.12;51.75;97231.09;5033894;28;20442;-77
2022/02/14 08:29:27;;;;;;;5.70;3.83;;;4.60;49.50;;;3.16;51.88;97228.88;5032968;28;20529;-75
2022/02/14 08:31:54;;;;;;;5.73;4.47;;;4.50;49.20;;;3.15;52.17;97229.91;5032583;28;20953;-74
2022/02/14 08:34:21;;;;;;;6.43;4.60;;;4.60;49.20;;;2.68;51.63;97166.94;5032545;28;20526;-76
2022/02/14 08:36:49;;;;;;;6.77;4.30;;;4.60;48.90;;;3.00;51.98;97222.75;5032158;28;20524;-71
2022/02/14 08:39:17;;;;;;;4.60;3.63;;;4.50;48.90;;;3.05;51.27;97220.34;5048929;28;20763;-74
2022/02/14 08:41:46;;;;;;;3.77;3.40;;;4.50;48.80;;;3.17;51.09;97227.88;5033482;28;20443;-72
2022/02/14 08:44:14;;;;;;;5.50;3.10;;;4.50;48.70;;;3.27;51.48;97228.41;5033811;28;20517;-73
2022/02/14 08:46:41;;;;;;;4.10;3.33;;;4.70;48.70;;;3.42;50.55;97224.88;5031933;28;20481;-73
2022/02/14 08:49:11;;;;;;;4.97;3.80;;;4.80;48.60;;;3.73;50.13;97218.41;5033665;28;20554;-75
2022/02/14 08:51:38;;;;;;;5.10;3.70;;;5.00;48.60;;;4.00;49.40;97226.63;5033715;28;20434;-75
2022/02/14 08:54:05;;;;;;;5.40;3.80;;;5.20;48.00;;;4.16;49.14;97215.66;5033636;28;20474;-75
2022/02/14 08:56:32;;;;;;;4.40;3.13;;;5.40;47.70;;;3.83;48.02;97130.69;5031969;28;20447;-75
2022/02/14 08:58:58;;;;;;;5.53;3.20;;;5.70;47.40;;;4.51;47.26;97213.03;5033742;28;20446;-75
2022/02/14 09:01:27;;;;;;;6.23;3.43;;;5.80;46.90;;;4.48;47.03;97208.09;5048595;28;20525;-75
2022/02/14 09:03:56;;;;;;;3.60;3.23;;;5.90;46.20;;;4.27;46.79;97184.91;5033780;28;20534;-76
2022/02/14 09:06:23;;;;;;;4.50;3.13;;;5.80;45.90;;;4.41;45.99;97201.84;5033256;28;20434;-74
2022/02/14 09:08:50;;;;;;;4.47;3.00;;;5.80;45.60;;;4.54;45.78;97199.25;5015634;28;20553;-75
2022/02/14 09:11:17;;;;;;;6.25;3.90;;;5.90;45.50;;;4.69;45.52;97203.66;5047798;28;20450;-75
2022/02/14 09:13:44;;;;;;;4.30;3.20;;;6.00;45.50;;;4.70;45.74;97191.09;5031799;28;20229;-76
2022/02/14 09:16:11;;;;;;;3.57;3.27;;;6.10;45.20;;;4.79;44.99;97198.78;5033298;28;20515;-75
2022/02/14 09:18:40;;;;;;;7.50;3.70;;;6.10;45.00;;;4.80;44.48;97199.59;5049459;28;21005;-76
2022/02/14 09:21:07;;;;;;;4.10;2.77;;;6.20;44.80;;;4.87;44.94;97199.63;5032110;28;20442;-74
2022/02/14 09:23:34;;;;;;;6.10;3.50;;;6.20;44.80;;;5.07;44.90;97200.53;5033125;28;20441;-75
2022/02/14 09:26:01;;;;;;;6.50;3.40;;;6.40;44.70;;;5.03;44.45;97198.47;5032816;28;20438;-75
2022/02/14 09:28:28;;;;;;;3.80;3.27;;;6.40;45.00;;;5.18;43.99;97185.75;5033475;28;20447;-75
2022/02/14 09:30:56;;;;;;;4.87;2.80;;;6.50;44.40;;;5.07;43.48;97173.75;5032964;28;20474;-76
2022/02/14 09:33:24;;;;;;;6.80;3.00;;;6.50;44.20;;;5.18;43.77;97180.41;5034129;28;20506;-74
2022/02/14 09:35:52;;;;;;;6.80;3.23;;;6.50;44.10;;;5.49;42.61;97191.59;5032179;28;20451;-74
2022/02/14 09:38:20;;;;;;;5.13;2.70;;;6.70;43.60;;;5.62;42.10;97188.94;5033081;28;20529;-75
2022/02/14 09:40:47;;;;;;;3.50;2.50;;;6.90;43.60;;;5.90;42.29;97195.97;5033690;28;20481;-75
2022/02/14 09:43:15;;;;;;;5.77;2.67;;;7.20;43.50;;;6.10;41.72;97181.75;5032054;28;20533;-77
2022/02/14 09:45:43;;;;;;;4.67;2.90;;;7.40;43.30;;;6.12;41.06;97185.06;5033019;28;20438;-77
2022/02/14 09:48:12;;;;;;;3.43;2.70;;;7.40;42.90;;;6.22;41.25;97185.47;5032369;28;20841;-76
2022/02/14 09:50:40;;;;;;;3.50;2.83;;;7.60;42.80;;;6.54;41.06;97183.97;5031756;28;20553;-75
2022/02/14 09:53:11;;;;;;;4.03;2.90;;;7.80;42.80;;;6.87;40.46;97181.22;5033279;28;20430;-75
2022/02/14 09:55:39;;;;;;;3.27;2.97;;;8.10;42.70;;;7.21;39.66;97175.69;5031779;28;20446;-75
2022/02/14 09:58:07;;;;;;;4.50;2.70;;;8.30;42.50;;;7.31;38.85;97176.03;5034254;28;20505;-73
2022/02/14 10:00:34;;;;;;;4.33;3.10;;;8.60;42.00;;;7.06;39.04;97158.00;5035369;28;20496;-77
2022/02/14 10:03:16;;;;;;;3.77;2.90;;;8.50;41.60;;;7.24;38.55;97175.28;5035830;28;20509;-76
2022/02/14 10:05:47;;;;;;;4.63;3.13;;;8.50;41.40;;;7.26;38.28;97164.28;5035291;28;20438;-75
2022/02/14 10:08:25;;;;;;;4.63;3.30;;;8.50;41.40;;;7.20;38.79;97174.03;5035039;28;20469;-75
2022/02/14 10:10:55;;;;;;;3.07;2.50;;;8.50;41.30;;;7.36;38.89;97175.41;5035455;28;20541;-77
2022/02/14 10:13:32;;;;;;;4.70;3.20;;;8.60;41.50;;;7.45;38.43;97175.97;5034972;28;20466;-75
2022/02/14 10:16:00;;;;;;;4.10;2.73;;;8.70;41.30;;;7.18;38.82;97157.31;5034766;28;20427;-73
2022/02/14 10:18:33;;;;;;;3.80;2.57;;;8.60;41.10;;;7.83;38.32;97175.09;5035838;28;20533;-74
2022/02/14 10:21:21;;;;;;;10.77;3.30;;;8.90;41.80;;;7.72;39.49;97165.03;5035832;28;20447;-74
2022/02/14 10:24:03;;;;;;;3.27;2.80;;;8.90;41.40;;;7.88;37.88;97174.44;5035849;28;20538;-74
2022/02/14 10:26:33;;;;;;;3.13;2.47;;;9.00;41.30;;;7.89;37.23;97165.34;5051876;28;20481;-75
2022/02/14 10:29:11;;;;;;;3.80;2.77;;;9.10;41.00;;;8.03;37.58;97171.44;5034400;28;20438;-75
2022/02/14 10:31:43;;;;;;;3.33;2.53;;;9.20;40.90;;;8.10;36.61;97147.97;5036817;28;20478;-74
2022/02/14 10:34:11;;;;;;;2.83;2.60;;;9.30;40.80;;;7.76;37.36;97161.72;5034292;28;20957;-74